map of SEZ home
SEZ - Airport
Location
City:  Mahé, Mahé Island, Pointe Larue (Pointe La Rue, Pwent Lari), Seychelles
Near (Alt.):Victoria
Name:Seychelles International Airport
ICAO:FSIA
IATA:SEZ

Details
Type:Airport (Aerodrome, Airfield)
Use:Public/Civil, International (customs port of entry)
Latitude:4°40'28"S (-4.674341)
Longitude:55°31'19"E (55.521839)
Datum:WGS 1984
Elevation:10 ft (3 m)
Variation:5.02°W (WMM2015 magnetic declination)
0.03° annual change
Runways:1
Longest:9800 × 151 ft (2987 × 46 m), paved

Time
Time Zone:UTC+4
Local Time:

Weather
METAR:FSIA 191500Z 23003KT 200V270 9999 FEW025 28/22 Q1011 NOSIG
TAF:FSIA 191100Z 1912/2012 17010KT 9999 FEW020
TEMPO 1918/1922 8000 SHRA BKN018
BECMG 1919/1921 11005KT

Related Locations
Nearby:
Farthest:UAH: 11043 mi / 17772 km
Ua Huka, Marquesas Islands, PF

Find:

   beyond  
but within

Other Information
Maps:
NOTAMs:
Links:
Sources:

  
  • flag of Seychelles
  

Sectional Chart

Flight Planning
at skyvector.com

Satellite Image

Google Maps Satellite view

 

Copyright © 2004-2018 Karl L. Swartz. All rights reserved.
The Great Circle Mapper name and logo are trademarks of the Great Circle Mapper.
All other trademarks mentioned herein belong to their respective owners.
Please see credits for attibutions and further copyright information.

  Follow gcmap on Facebook Follow gcmap on Twitter Follow gcmap on Google+ GCmap on LinkedIn

hCard Microformat

Geo Microformat